RSJ weather

Rancho San Jose Airport
Teapa, Tabasco, Mexico

Public forecast

Using degrees Celsius for public forecast. Weather courtesy of forecast.io.

Closest aviation weather report (METAR) to Rancho San Jose Airport

Closest report is Carlos Rovirosa Pérez International Airport, 25.8 nm (47.7 km) NNE. Retrieved 2019/12/15 15:40 UTC (0 seconds ago):

MMVA 151540Z 08007KT 7SM SKC 26/26 A2997

Closest aviation forecast (TAF) to Rancho San Jose Airport

Forecast is more than 6 hours old.

Closest forecast is Carlos Rovirosa Pérez International Airport, 25.8 nm (47.7 km) NNE. Retrieved 2019/12/15 06:22 UTC (9 hours ago):

TAF MMVA 150514Z 1506/1606 09005KT 4SM HZ SCT015 SCT060 FM151000 00000KT 2SM BR BKN005 OVC010 TEMPO 1510/1514 1/2SM FG VV001 FM151600 00000KT 3SM HZ BKN010 FM151800 06010KT 6SM HZ SCT020 FM160300 08005KT 6SM HZ SCT015